Time;durP1;ratioP1;P1;durP2;ratioP2;P2;SDS_P1;SDS_P2;PMS_P1;PMS_P2;Temp;Humidity;BMP_temperature;BMP_pressure;BME280_temperature;BME280_humidity;BME280_pressure;Samples;Min_cycle;Max_cycle;Signal;HPM_P1;HPM_P2
2024/02/15 00:00:17;;;;;;;6.00;4.00;;;;;;;;;;5013993;28;20277;-59
2024/02/15 00:02:45;;;;;;;6.53;4.60;;;;;;;;;;5016230;28;20296;-59
2024/02/15 00:05:12;;;;;;;6.13;5.17;;;;;;;;;;5013013;28;20206;-59
2024/02/15 00:07:41;;;;;;;4.83;4.03;;;;;;;;;;5013782;28;20201;-59
2024/02/15 00:10:09;;;;;;;5.23;4.00;;;;;;;;;;5006154;28;20249;-59
2024/02/15 00:12:36;;;;;;;4.53;3.93;;;;;;;;;;5000338;28;20205;-59
2024/02/15 00:15:04;;;;;;;9.10;5.10;;;;;;;;;;5012715;28;20204;-59
2024/02/15 00:17:35;;;;;;;8.80;4.80;;;;;;;;;;5013694;28;20288;-59
2024/02/15 00:20:04;;;;;;;7.27;4.77;;;;;;;;;;5013433;28;20229;-59
2024/02/15 00:22:33;;;;;;;7.33;5.53;;;;;;;;;;5013611;28;20211;-59
2024/02/15 00:25:02;;;;;;;6.83;4.73;;;;;;;;;;5012608;28;20568;-59
2024/02/15 00:27:29;;;;;;;7.97;4.03;;;;;;;;;;4998451;28;20200;-59
2024/02/15 00:29:57;;;;;;;5.83;5.23;;;;;;;;;;4993654;28;20258;-59
2024/02/15 00:32:24;;;;;;;4.90;4.40;;;;;;;;;;4993605;28;20720;-59
2024/02/15 00:34:51;;;;;;;4.80;4.20;;;;;;;;;;4992932;28;20696;-59
2024/02/15 00:37:17;;;;;;;5.20;4.17;;;;;;;;;;4993403;28;20232;-59
2024/02/15 00:39:45;;;;;;;3.87;3.57;;;;;;;;;;4993299;28;20219;-59
2024/02/15 00:42:13;;;;;;;5.60;4.00;;;;;;;;;;4995907;28;20320;-59
2024/02/15 00:44:42;;;;;;;5.20;3.50;;;;;;;;;;5012251;28;20204;-59
2024/02/15 00:47:11;;;;;;;3.60;3.37;;;;;;;;;;5012978;28;20241;-59
2024/02/15 00:49:38;;;;;;;4.27;3.70;;;;;;;;;;5012842;28;20260;-59
2024/02/15 00:52:06;;;;;;;6.23;3.20;;;;;;;;;;5012742;28;20754;-59
2024/02/15 00:54:33;;;;;;;5.10;3.63;;;;;;;;;;5012304;28;20209;-59
2024/02/15 00:57:00;;;;;;;4.23;3.67;;;;;;;;;;5012825;28;20265;-59
2024/02/15 00:59:29;;;;;;;4.07;3.43;;;;;;;;;;5011891;28;20225;-59
2024/02/15 01:01:56;;;;;;;4.77;3.37;;;;;;;;;;5012789;28;20217;-59
2024/02/15 01:04:23;;;;;;;4.00;3.60;;;;;;;;;;5011941;28;20232;-59
2024/02/15 01:06:51;;;;;;;3.37;3.07;;;;;;;;;;5012522;28;20237;-59
2024/02/15 01:09:18;;;;;;;3.43;2.50;;;;;;;;;;5012678;28;20223;-59
2024/02/15 01:11:46;;;;;;;3.20;2.90;;;;;;;;;;5012693;28;20229;-59
2024/02/15 01:14:13;;;;;;;3.70;3.07;;;;;;;;;;5011824;28;20208;-59
2024/02/15 01:16:41;;;;;;;3.13;2.60;;;;;;;;;;5011830;28;20246;-59
2024/02/15 01:19:09;;;;;;;6.20;2.77;;;;;;;;;;5012353;28;20255;-59
2024/02/15 01:21:36;;;;;;;4.53;3.67;;;;;;;;;;5012575;28;20216;-59
2024/02/15 01:24:03;;;;;;;5.77;4.17;;;;;;;;;;5009666;28;20240;-59
2024/02/15 01:26:31;;;;;;;7.83;3.73;;;;;;;;;;5012751;28;20292;-59
2024/02/15 01:28:58;;;;;;;5.43;3.70;;;;;;;;;;5010185;28;20231;-59
2024/02/15 01:31:25;;;;;;;4.43;3.60;;;;;;;;;;5011016;28;20241;-59
2024/02/15 01:33:54;;;;;;;4.77;4.10;;;;;;;;;;4991633;28;20714;-59
2024/02/15 01:36:21;;;;;;;5.47;3.53;;;;;;;;;;4992678;28;20261;-59
2024/02/15 01:38:48;;;;;;;5.40;4.00;;;;;;;;;;4992362;28;20713;-59
2024/02/15 01:41:15;;;;;;;10.83;4.60;;;;;;;;;;5003849;28;20251;-59
2024/02/15 01:43:45;;;;;;;7.00;4.00;;;;;;;;;;5011409;28;20279;-59
2024/02/15 01:46:13;;;;;;;4.07;3.67;;;;;;;;;;5011369;28;20208;-59
2024/02/15 01:48:41;;;;;;;3.97;3.57;;;;;;;;;;5011955;28;20261;-60
2024/02/15 01:51:11;;;;;;;8.87;3.90;;;;;;;;;;5011911;28;20747;-60
2024/02/15 01:53:39;;;;;;;6.30;3.60;;;;;;;;;;5011182;28;20669;-59
2024/02/15 01:56:07;;;;;;;5.97;3.23;;;;;;;;;;5011207;28;20257;-59
2024/02/15 01:58:35;;;;;;;3.67;3.10;;;;;;;;;;5011635;28;20716;-59
2024/02/15 02:01:03;;;;;;;2.53;2.43;;;;;;;;;;5011769;28;20232;-59
2024/02/15 02:03:31;;;;;;;3.90;3.27;;;;;;;;;;5010371;28;20242;-59
2024/02/15 02:05:58;;;;;;;4.47;3.10;;;;;;;;;;5011830;28;20584;-59
2024/02/15 02:08:26;;;;;;;2.60;2.40;;;;;;;;;;5011833;28;20204;-59
2024/02/15 02:10:54;;;;;;;2.77;2.57;;;;;;;;;;5011871;28;20245;-59
2024/02/15 02:13:21;;;;;;;3.33;2.37;;;;;;;;;;5010902;28;20212;-59
2024/02/15 02:15:48;;;;;;;5.23;3.40;;;;;;;;;;5011503;28;20244;-59
2024/02/15 02:18:16;;;;;;;4.30;3.03;;;;;;;;;;5011796;28;20334;-59
2024/02/15 02:20:45;;;;;;;2.63;2.43;;;;;;;;;;5011037;28;20648;-60
2024/02/15 02:23:16;;;;;;;3.50;3.20;;;;;;;;;;5011122;28;20738;-59
2024/02/15 02:25:48;;;;;;;3.30;2.90;;;;;;;;;;5011845;28;20265;-59
2024/02/15 02:28:16;;;;;;;5.83;3.30;;;;;;;;;;5011638;28;20331;-59
2024/02/15 02:30:45;;;;;;;3.30;3.03;;;;;;;;;;5011623;28;20311;-59
2024/02/15 02:33:18;;;;;;;2.50;2.30;;;;;;;;;;5010924;28;20205;-59
2024/02/15 02:35:45;;;;;;;4.27;3.03;;;;;;;;;;5010916;28;20206;-59
2024/02/15 02:38:13;;;;;;;3.27;2.90;;;;;;;;;;5011886;28;20712;-59
2024/02/15 02:40:40;;;;;;;4.07;2.57;;;;;;;;;;5011722;28;20226;-59
2024/02/15 02:43:09;;;;;;;4.93;2.43;;;;;;;;;;5013609;28;20822;-59
2024/02/15 02:45:36;;;;;;;3.10;2.83;;;;;;;;;;5011695;28;20304;-59
2024/02/15 02:48:04;;;;;;;5.60;2.90;;;;;;;;;;5011696;28;20206;-59
2024/02/15 02:50:31;;;;;;;2.07;1.97;;;;;;;;;;5010956;28;20275;-59
2024/02/15 02:52:59;;;;;;;3.23;2.40;;;;;;;;;;5011177;28;20204;-59
2024/02/15 02:55:27;;;;;;;3.70;2.30;;;;;;;;;;5010949;28;20281;-59
2024/02/15 02:57:54;;;;;;;2.17;2.07;;;;;;;;;;4992196;28;20223;-59
2024/02/15 03:00:23;;;;;;;2.90;2.70;;;;;;;;;;4994466;28;20245;-59
2024/02/15 03:02:50;;;;;;;4.73;3.43;;;;;;;;;;4991533;28;20266;-59
2024/02/15 03:05:20;;;;;;;5.00;3.67;;;;;;;;;;4992936;28;20201;-59
2024/02/15 03:07:48;;;;;;;4.43;4.03;;;;;;;;;;5014745;28;20792;-59
2024/02/15 03:10:15;;;;;;;4.97;3.90;;;;;;;;;;5014838;28;20252;-59
2024/02/15 03:12:46;;;;;;;2.53;2.43;;;;;;;;;;5014872;28;20255;-59
2024/02/15 03:15:14;;;;;;;3.83;3.17;;;;;;;;;;5013825;28;20205;-59
2024/02/15 03:17:43;;;;;;;2.80;2.47;;;;;;;;;;5014551;28;20225;-59
2024/02/15 03:20:13;;;;;;;7.40;2.97;;;;;;;;;;5014481;28;20219;-59
2024/02/15 03:22:41;;;;;;;5.73;3.30;;;;;;;;;;5008246;28;20205;-59
2024/02/15 03:25:09;;;;;;;5.73;3.60;;;;;;;;;;4994232;28;20292;-59
2024/02/15 03:27:37;;;;;;;3.63;2.97;;;;;;;;;;4993314;28;20206;-60
2024/02/15 03:30:04;;;;;;;4.30;3.00;;;;;;;;;;4994544;28;20601;-59
2024/02/15 03:32:32;;;;;;;3.80;2.73;;;;;;;;;;4993910;28;20208;-59
2024/02/15 03:35:02;;;;;;;6.17;3.93;;;;;;;;;;4992871;28;20606;-59
2024/02/15 03:37:29;;;;;;;3.97;3.43;;;;;;;;;;4994851;28;20286;-59
2024/02/15 03:39:57;;;;;;;5.07;3.67;;;;;;;;;;4995661;28;20259;-59
2024/02/15 03:42:24;;;;;;;3.13;2.87;;;;;;;;;;4997945;28;20579;-59
2024/02/15 03:44:54;;;;;;;3.53;3.20;;;;;;;;;;4993679;28;20700;-59
2024/02/15 03:47:21;;;;;;;5.07;3.60;;;;;;;;;;4994870;28;20213;-59
2024/02/15 03:49:48;;;;;;;3.13;2.67;;;;;;;;;;4994520;28;20225;-59
2024/02/15 03:52:17;;;;;;;3.00;2.20;;;;;;;;;;4994684;28;20205;-59
2024/02/15 03:54:45;;;;;;;1.80;1.70;;;;;;;;;;4994038;28;20213;-59
2024/02/15 03:57:13;;;;;;;2.23;2.00;;;;;;;;;;5011723;28;20220;-59
2024/02/15 03:59:40;;;;;;;1.97;1.83;;;;;;;;;;5014041;28;20240;-59
2024/02/15 04:02:14;;;;;;;1.53;1.43;;;;;;;;;;5017865;28;20209;-59
2024/02/15 04:04:42;;;;;;;2.00;1.80;;;;;;;;;;5013291;28;20201;-59
2024/02/15 04:07:11;;;;;;;1.60;1.60;;;;;;;;;;5013974;28;20228;-59
2024/02/15 04:09:40;;;;;;;3.20;2.50;;;;;;;;;;5013663;28;20281;-59
2024/02/15 04:12:08;;;;;;;4.13;2.17;;;;;;;;;;5012753;28;20631;-59
2024/02/15 04:14:35;;;;;;;3.83;2.27;;;;;;;;;;5012906;28;20205;-59
2024/02/15 04:17:02;;;;;;;1.97;1.87;;;;;;;;;;5013202;28;20229;-59
2024/02/15 04:19:30;;;;;;;1.83;1.73;;;;;;;;;;5013078;28;20309;-59
2024/02/15 04:21:57;;;;;;;2.17;1.97;;;;;;;;;;5013433;28;20212;-59
2024/02/15 04:24:25;;;;;;;1.77;1.67;;;;;;;;;;5012569;28;20265;-59
2024/02/15 04:26:54;;;;;;;1.87;1.77;;;;;;;;;;5013244;28;20285;-59
2024/02/15 04:29:21;;;;;;;2.67;1.77;;;;;;;;;;5012715;28;20225;-59
2024/02/15 04:31:49;;;;;;;3.63;2.77;;;;;;;;;;5013235;28;20341;-59
2024/02/15 04:34:16;;;;;;;5.93;4.33;;;;;;;;;;5012401;28;20452;-59
2024/02/15 04:36:45;;;;;;;7.97;4.40;;;;;;;;;;5013211;28;20672;-59
2024/02/15 04:39:23;;;;;;;4.97;3.43;;;;;;;;;;5013080;28;20228;-59
2024/02/15 04:41:50;;;;;;;2.80;2.50;;;;;;;;;;5013016;28;20307;-59
2024/02/15 04:44:20;;;;;;;3.10;2.53;;;;;;;;;;5012387;28;20234;-59
2024/02/15 04:46:49;;;;;;;3.20;2.30;;;;;;;;;;4994641;28;20203;-58
2024/02/15 04:49:16;;;;;;;2.47;1.97;;;;;;;;;;5013031;28;20224;-59
2024/02/15 04:51:43;;;;;;;3.63;3.07;;;;;;;;;;5012897;28;20204;-59
2024/02/15 04:54:13;;;;;;;3.57;2.10;;;;;;;;;;5012297;28;20205;-59
2024/02/15 04:56:40;;;;;;;2.83;2.03;;;;;;;;;;5012675;28;20200;-59
2024/02/15 04:59:08;;;;;;;1.93;1.60;;;;;;;;;;5033329;23;20236;-61
2024/02/15 05:01:37;;;;;;;2.60;1.90;;;;;;;;;;4954710;28;20569;-59
2024/02/15 05:04:07;;;;;;;2.83;2.20;;;;;;;;;;4963720;28;20210;-59
2024/02/15 05:06:36;;;;;;;2.30;2.10;;;;;;;;;;4973562;28;20241;-59
2024/02/15 05:09:07;;;;;;;2.13;1.97;;;;;;;;;;4973447;28;20204;-59
2024/02/15 05:11:36;;;;;;;1.97;1.57;;;;;;;;;;4973235;28;20213;-59
2024/02/15 05:14:07;;;;;;;3.77;2.70;;;;;;;;;;4972804;28;20217;-59
2024/02/15 05:16:34;;;;;;;2.33;2.23;;;;;;;;;;4973654;28;20584;-59
2024/02/15 05:19:04;;;;;;;2.50;2.40;;;;;;;;;;4947369;28;20284;-59
2024/02/15 05:21:33;;;;;;;2.80;2.60;;;;;;;;;;4934711;29;20250;-59
2024/02/15 05:24:00;;;;;;;2.70;2.50;;;;;;;;;;4933897;29;20208;-59
2024/02/15 05:26:28;;;;;;;2.70;2.10;;;;;;;;;;4934625;29;20637;-59
2024/02/15 05:28:55;;;;;;;3.03;2.43;;;;;;;;;;4934836;29;20199;-59
2024/02/15 05:31:25;;;;;;;3.83;3.03;;;;;;;;;;4934897;29;20211;-59
2024/02/15 05:33:53;;;;;;;5.30;2.60;;;;;;;;;;4931594;29;20211;-59
2024/02/15 05:36:25;;;;;;;3.03;2.20;;;;;;;;;;4954455;28;20201;-59
2024/02/15 05:38:54;;;;;;;3.00;2.80;;;;;;;;;;4951480;29;20227;-59
2024/02/15 05:41:21;;;;;;;2.93;2.73;;;;;;;;;;4953774;28;20216;-59
2024/02/15 05:43:49;;;;;;;3.60;3.27;;;;;;;;;;4953009;29;20239;-59
2024/02/15 05:46:16;;;;;;;5.27;3.23;;;;;;;;;;4953672;29;20245;-59
2024/02/15 05:48:44;;;;;;;4.10;2.67;;;;;;;;;;4953623;29;20353;-59
2024/02/15 05:51:11;;;;;;;4.27;3.17;;;;;;;;;;4953771;28;20218;-59
2024/02/15 05:53:41;;;;;;;4.10;3.53;;;;;;;;;;4952847;29;20204;-59
2024/02/15 05:56:10;;;;;;;9.03;4.57;;;;;;;;;;4953585;29;20218;-60
2024/02/15 05:58:37;;;;;;;4.90;4.50;;;;;;;;;;4953478;29;20222;-59
2024/02/15 06:01:06;;;;;;;6.77;4.27;;;;;;;;;;4953229;29;20267;-59
2024/02/15 06:03:36;;;;;;;6.10;4.07;;;;;;;;;;4952534;29;20219;-59
2024/02/15 06:06:06;;;;;;;8.77;3.67;;;;;;;;;;4953348;29;20201;-59
2024/02/15 06:08:34;;;;;;;7.00;5.13;;;;;;;;;;4953905;28;20226;-59
2024/02/15 06:11:02;;;;;;;10.27;4.57;;;;;;;;;;4953349;29;20282;-59
2024/02/15 06:13:29;;;;;;;6.30;4.20;;;;;;;;;;4952528;29;20215;-59
2024/02/15 06:15:57;;;;;;;6.33;4.93;;;;;;;;;;4953220;29;20263;-59
2024/02/15 06:18:27;;;;;;;5.77;5.13;;;;;;;;;;4953134;28;20351;-59
2024/02/15 06:20:56;;;;;;;8.90;4.90;;;;;;;;;;4953092;29;20803;-59
2024/02/15 06:23:25;;;;;;;8.00;4.60;;;;;;;;;;4952568;29;20201;-59
2024/02/15 06:25:54;;;;;;;6.17;5.03;;;;;;;;;;4970340;28;20256;-59
2024/02/15 06:42:02;;;;;;;12.07;6.00;;;;;;;;;;4958961;28;20589;-59
2024/02/15 06:44:31;;;;;;;8.63;5.27;;;;;;;;;;4955924;29;20648;-60
2024/02/15 06:46:59;;;;;;;10.47;4.90;;;;;;;;;;4956778;29;20207;-59
2024/02/15 06:49:26;;;;;;;6.97;4.17;;;;;;;;;;4956554;29;20251;-59
2024/02/15 06:51:54;;;;;;;4.77;3.93;;;;;;;;;;4956839;29;20211;-59
2024/02/15 06:54:22;;;;;;;4.80;3.53;;;;;;;;;;4955848;29;20205;-59
2024/02/15 06:56:51;;;;;;;4.47;3.00;;;;;;;;;;4956967;28;20640;-59
2024/02/15 06:59:19;;;;;;;4.83;3.43;;;;;;;;;;4956299;29;20242;-59
2024/02/15 07:01:47;;;;;;;6.70;3.47;;;;;;;;;;4956511;29;20264;-59
2024/02/15 07:04:15;;;;;;;6.10;3.67;;;;;;;;;;4955466;29;20275;-59
2024/02/15 07:06:44;;;;;;;3.50;2.03;;;;;;;;;;4956448;29;20206;-59
2024/02/15 07:09:12;;;;;;;5.63;2.00;;;;;;;;;;4956307;29;20204;-59
2024/02/15 07:11:39;;;;;;;2.67;2.47;;;;;;;;;;4956323;29;20212;-59
2024/02/15 07:14:07;;;;;;;3.40;2.37;;;;;;;;;;4955953;28;20201;-59
2024/02/15 07:16:34;;;;;;;8.00;2.97;;;;;;;;;;4956092;29;20234;-59
2024/02/15 07:19:04;;;;;;;5.17;3.07;;;;;;;;;;4956236;29;20257;-59
2024/02/15 07:21:31;;;;;;;8.17;3.37;;;;;;;;;;4956201;29;20209;-59
2024/02/15 07:23:59;;;;;;;6.57;2.93;;;;;;;;;;4955379;29;20616;-59
2024/02/15 07:26:27;;;;;;;5.70;2.73;;;;;;;;;;4956099;29;20264;-59
2024/02/15 07:28:55;;;;;;;7.87;2.70;;;;;;;;;;4955916;29;20259;-59
2024/02/15 07:31:23;;;;;;;2.03;1.93;;;;;;;;;;4969123;28;20202;-59
2024/02/15 07:33:51;;;;;;;5.43;3.23;;;;;;;;;;4974429;28;20212;-59
2024/02/15 07:36:21;;;;;;;3.17;2.97;;;;;;;;;;4975319;28;20300;-59
2024/02/15 07:38:49;;;;;;;4.13;3.13;;;;;;;;;;4973003;28;20719;-59
2024/02/15 07:41:17;;;;;;;3.63;2.77;;;;;;;;;;4974821;28;20264;-59
2024/02/15 07:43:46;;;;;;;5.43;3.00;;;;;;;;;;4971886;28;20210;-59
2024/02/15 07:46:16;;;;;;;5.07;4.00;;;;;;;;;;4970555;28;21009;-59
2024/02/15 07:48:45;;;;;;;6.20;3.40;;;;;;;;;;4955373;29;20200;-58
2024/02/15 07:51:12;;;;;;;4.43;3.43;;;;;;;;;;4971048;28;20222;-60
2024/02/15 07:53:42;;;;;;;8.90;3.93;;;;;;;;;;4972838;28;20658;-58
2024/02/15 07:56:10;;;;;;;6.63;3.77;;;;;;;;;;4974753;28;20212;-60
2024/02/15 07:58:41;;;;;;;9.40;3.10;;;;;;;;;;4973359;28;20230;-57
2024/02/15 08:01:09;;;;;;;4.50;3.60;;;;;;;;;;4974023;28;20337;-57
2024/02/15 08:03:36;;;;;;;5.37;3.17;;;;;;;;;;4962728;28;20242;-57
2024/02/15 08:06:06;;;;;;;4.27;2.37;;;;;;;;;;4955370;28;20256;-57
2024/02/15 08:08:35;;;;;;;3.63;1.63;;;;;;;;;;4955120;29;20201;-57
2024/02/15 08:11:05;;;;;;;4.93;1.77;;;;;;;;;;4954964;29;20677;-57
2024/02/15 08:13:32;;;;;;;2.03;1.93;;;;;;;;;;4954483;29;20202;-57
2024/02/15 08:15:59;;;;;;;1.63;1.53;;;;;;;;;;4955050;29;20740;-57
2024/02/15 08:18:27;;;;;;;3.20;1.33;;;;;;;;;;4955070;29;20278;-57
2024/02/15 08:20:56;;;;;;;5.13;2.93;;;;;;;;;;4971694;28;20219;-57
2024/02/15 08:23:23;;;;;;;5.50;1.47;;;;;;;;;;4973280;28;20211;-57
2024/02/15 08:25:52;;;;;;;2.20;1.97;;;;;;;;;;4973593;28;20214;-57
2024/02/15 08:28:20;;;;;;;4.00;1.53;;;;;;;;;;4974126;28;20207;-57
2024/02/15 08:30:48;;;;;;;1.67;1.53;;;;;;;;;;4974013;28;20265;-57
2024/02/15 08:33:15;;;;;;;5.00;1.27;;;;;;;;;;4972991;28;20209;-57
2024/02/15 08:35:42;;;;;;;1.63;1.53;;;;;;;;;;4972810;28;20284;-57
2024/02/15 08:38:09;;;;;;;1.80;1.07;;;;;;;;;;4974087;28;20236;-57
2024/02/15 08:40:37;;;;;;;0.90;0.90;;;;;;;;;;4973721;28;20277;-57
2024/02/15 08:43:04;;;;;;;3.60;1.17;;;;;;;;;;4973175;28;20206;-57
2024/02/15 08:45:33;;;;;;;0.80;0.80;;;;;;;;;;4973888;28;20257;-57
2024/02/15 08:48:00;;;;;;;1.07;1.00;;;;;;;;;;4973825;28;20210;-57
2024/02/15 08:50:28;;;;;;;3.67;0.80;;;;;;;;;;4973529;28;20285;-57
2024/02/15 08:52:55;;;;;;;1.80;0.73;;;;;;;;;;4971809;28;20208;-57
2024/02/15 08:55:26;;;;;;;3.27;1.77;;;;;;;;;;4973816;28;20204;-57
2024/02/15 08:57:54;;;;;;;1.47;0.93;;;;;;;;;;4973531;28;20211;-57
2024/02/15 09:00:21;;;;;;;7.63;2.63;;;;;;;;;;4973270;28;20242;-57
2024/02/15 09:02:51;;;;;;;4.27;2.50;;;;;;;;;;4973440;28;20204;-57
2024/02/15 09:05:18;;;;;;;5.60;3.63;;;;;;;;;;4973331;28;20246;-57
2024/02/15 09:07:47;;;;;;;2.30;2.07;;;;;;;;;;4973485;28;20207;-57
2024/02/15 09:10:16;;;;;;;7.70;2.50;;;;;;;;;;4956597;28;20223;-57
2024/02/15 09:12:46;;;;;;;4.50;2.10;;;;;;;;;;4973254;28;20218;-57
2024/02/15 09:15:14;;;;;;;4.60;2.13;;;;;;;;;;4972413;28;20302;-57
2024/02/15 09:17:42;;;;;;;1.90;1.70;;;;;;;;;;4973383;28;20203;-57
2024/02/15 09:20:15;;;;;;;1.57;1.30;;;14.20;99.90;;;;;;4973162;28;20226;-57
2024/02/15 09:22:42;;;;;;;3.93;1.73;;;14.70;99.90;;;;;;4973162;28;20234;-57
2024/02/15 09:25:10;;;;;;;3.30;1.70;;;15.10;99.90;;;;;;4971232;28;20200;-57
2024/02/15 09:27:37;;;;;;;2.40;1.50;;;15.60;99.90;;;;;;4973096;28;20259;-57
2024/02/15 09:30:07;;;;;;;2.20;1.30;;;16.10;99.90;;;;;;4972937;28;20220;-57
2024/02/15 09:32:35;;;;;;;1.43;1.33;;;15.90;99.90;;;;;;4973195;28;20203;-57
2024/02/15 09:35:03;;;;;;;0.80;0.80;;;15.90;99.90;;;;;;4972123;28;20787;-57
2024/02/15 09:37:33;;;;;;;2.20;2.10;;;15.70;99.90;;;;;;4972985;28;20741;-57
2024/02/15 09:40:04;;;;;;;2.70;1.10;;;15.60;99.90;;;;;;4972709;28;20708;-57
2024/02/15 09:42:34;;;;;;;1.53;1.33;;;15.30;99.90;;;;;;4959671;28;20750;-57
2024/02/15 09:45:02;;;;;;;2.30;2.10;;;15.50;99.90;;;;;;4951666;29;20297;-57
2024/02/15 09:47:34;;;;;;;1.40;1.33;;;15.90;99.90;;;;;;4953523;29;20291;-57
2024/02/15 09:50:02;;;;;;;1.23;1.10;;;16.20;99.90;;;;;;4953253;29;20226;-57
2024/02/15 09:52:32;;;;;;;0.97;0.97;;;15.80;99.90;;;;;;4953519;29;20239;-57
2024/02/15 09:55:02;;;;;;;1.00;1.00;;;15.90;99.90;;;;;;4952561;29;20745;-57
2024/02/15 09:57:33;;;;;;;3.40;1.80;;;15.90;99.90;;;;;;4953590;29;20208;-57
2024/02/15 10:00:00;;;;;;;2.03;1.33;;;15.90;99.90;;;;;;4968866;28;20466;-57
2024/02/15 10:02:31;;;;;;;1.70;1.17;;;16.10;99.90;;;;;;4971563;28;20200;-57
2024/02/15 10:04:58;;;;;;;3.53;1.80;;;;;;;;;;4971462;28;20232;-59
2024/02/15 10:07:32;;;;;;;2.43;1.10;;;;;;;;;;4972527;28;20255;-61
2024/02/15 10:10:16;;;;;;;1.73;1.60;;;;;;;;;;4972663;28;20315;-60
2024/02/15 10:12:44;;;;;;;2.67;1.00;;;;;;;;;;4972929;28;20214;-60
2024/02/15 10:15:11;;;;;;;1.87;1.20;;;;;;;;;;4970643;28;20228;-60
2024/02/15 10:17:38;;;;;;;3.40;1.00;;;;;;;;;;4976440;28;20251;-60
2024/02/15 10:20:06;;;;;;;1.00;0.87;;;;;;;;;;4976394;28;20228;-60
2024/02/15 10:22:34;;;;;;;1.23;1.10;;;;;;;;;;4976734;28;20212;-60
2024/02/15 10:25:15;;;;;;;2.70;1.03;;;;;;;;;;4975602;28;20208;-57
2024/02/15 10:27:43;;;;;;;1.70;0.90;;;;;;;;;;4976207;28;20632;-58
2024/02/15 10:30:17;;;;;;;1.63;1.30;;;;;;;;;;4976345;28;20221;-58
2024/02/15 10:32:45;;;;;;;2.17;0.80;;;;;;;;;;4975170;28;20293;-62
2024/02/15 10:35:15;;;;;;;1.90;1.07;;;;;;;;;;4975644;28;20232;-58
2024/02/15 10:37:43;;;;;;;3.40;0.93;;;;;;;;;;4976692;28;20196;-59
2024/02/15 10:40:13;;;;;;;1.37;1.27;;;;;;;;;;4976208;28;20256;-61
2024/02/15 10:42:42;;;;;;;0.93;0.70;;;;;;;;;;4976248;28;20396;-61
2024/02/15 10:45:10;;;;;;;0.87;0.80;;;;;;;;;;4975283;28;20295;-59
2024/02/15 10:47:40;;;;;;;1.27;0.93;;;;;;;;;;4970068;28;20232;-58
2024/02/15 10:50:10;;;;;;;1.27;0.73;;;;;;;;;;4965702;28;20213;-64
2024/02/15 10:52:42;;;;;;;1.47;0.70;;;;;;;;;;4976046;28;20295;-61
2024/02/15 10:55:13;;;;;;;0.57;0.57;;;;;;;;;;4975181;28;20681;-58
2024/02/15 10:57:46;;;;;;;0.87;0.70;;;;;;;;;;4975898;28;20699;-57
2024/02/15 11:00:20;;;;;;;1.83;1.53;;;;;;;;;;5006061;23;20290;-64
2024/02/15 11:02:52;;;;;;;2.13;0.70;;;;;;;;;;4993832;28;20238;-60
2024/02/15 11:05:23;;;;;;;0.77;0.60;;;;;;;;;;4993572;28;20746;-60
2024/02/15 11:07:51;;;;;;;0.90;0.87;;;;;;;;;;5007915;28;20199;-59
2024/02/15 11:10:18;;;;;;;1.00;0.97;;;;;;;;;;5014265;28;20485;-59
2024/02/15 11:12:47;;;;;;;0.70;0.50;;;;;;;;;;5014791;28;20203;-59
2024/02/15 11:15:39;;;;;;;0.77;0.77;;;;;;;;;;5013762;28;20679;-59
2024/02/15 11:18:06;;;;;;;0.67;0.60;;;;;;;;;;5014389;28;20211;-59
2024/02/15 11:20:55;;;;;;;2.60;0.93;;;;;;;;;;5007259;28;20219;-59
2024/02/15 11:23:30;;;;;;;0.73;0.73;;;;;;;;;;4994005;28;20707;-59
2024/02/15 11:25:59;;;;;;;1.47;1.37;;;;;;;;;;4994898;28;20213;-60
2024/02/15 11:28:50;;;;;;;0.50;0.50;;;;;;;;;;4994574;28;20235;-59
2024/02/15 11:31:33;;;;;;;1.67;0.70;;;;;;;;;;4994812;28;20310;-59
2024/02/15 11:34:00;;;;;;;3.70;1.07;;;;;;;;;;4978405;28;20239;-59
2024/02/15 11:36:32;;;;;;;2.87;0.90;;;;;;;;;;4995201;28;20227;-59
2024/02/15 11:38:59;;;;;;;0.43;0.40;;;;;;;;;;5004299;28;20262;-59
2024/02/15 11:41:28;;;;;;;0.40;0.40;;;;;;;;;;5011645;28;20254;-59
2024/02/15 11:43:58;;;;;;;4.63;4.07;;;;;;;;;;5013447;28;20239;-59
2024/02/15 11:46:29;;;;;;;4.37;4.17;;;;;;;;;;5014260;28;20290;-59
2024/02/15 11:48:58;;;;;;;5.03;4.73;;;;;;;;;;5012279;28;20300;-59
2024/02/15 11:51:26;;;;;;;6.17;5.67;;;;;;;;;;5011254;28;20261;-59
2024/02/15 11:54:05;;;;;;;6.33;5.77;;;;;;;;;;4991943;28;20692;-59
2024/02/15 11:56:34;;;;;;;5.87;5.10;;;;;;;;;;4994872;28;20203;-59
2024/02/15 11:59:07;;;;;;;5.30;4.80;;;;;;;;;;4994518;28;20214;-59
2024/02/15 12:18:42;;;;;;;5.70;5.07;;;;;;;;;;5013758;28;20322;-59
2024/02/15 12:21:10;;;;;;;4.60;4.20;;;;;;;;;;5013523;28;20265;-59
2024/02/15 12:23:41;;;;;;;5.50;5.20;;;;;;;;;;5012679;28;20267;-59
2024/02/15 12:26:09;;;;;;;5.23;4.73;;;;;;;;;;4994482;28;20203;-59
2024/02/15 12:28:36;;;;;;;5.77;5.00;;;;;;;;;;4994054;28;20254;-59
2024/02/15 12:31:06;;;;;;;9.33;6.70;;;;;;;;;;4993382;28;20220;-59
2024/02/15 12:33:35;;;;;;;6.53;5.97;;;;;;;;;;4992912;28;20214;-59
2024/02/15 12:36:06;;;;;;;9.17;5.67;;;;;;;;;;4993665;28;20262;-59
2024/02/15 12:38:34;;;;;;;7.07;6.30;;;;;;;;;;4992922;28;20287;-59
2024/02/15 12:41:02;;;;;;;6.73;6.00;;;;;;;;;;4996964;28;20597;-59
2024/02/15 12:43:29;;;;;;;6.43;5.93;;;;;;;;;;5012311;28;20288;-59
2024/02/15 12:45:57;;;;;;;6.77;6.13;;;;;;;;;;5013533;28;20203;-59
2024/02/15 12:48:26;;;;;;;6.77;5.87;;;;;;;;;;5013152;28;20292;-59
2024/02/15 12:50:55;;;;;;;7.30;6.13;;;;;;;;;;5012779;28;20714;-59
2024/02/15 12:53:25;;;;;;;6.73;6.13;;;;;;;;;;5012100;28;20253;-59
2024/02/15 12:55:56;;;;;;;6.60;5.30;;;;;;;;;;5010551;28;20254;-59
2024/02/15 12:58:24;;;;;;;6.80;5.33;;;;;;;;;;5012682;28;20242;-59
2024/02/15 13:00:52;;;;;;;8.50;5.93;;;;;;;;;;5012574;28;20245;-59
2024/02/15 13:03:19;;;;;;;6.23;5.73;;;;;;;;;;5011785;28;20254;-59
2024/02/15 13:05:48;;;;;;;6.30;5.90;;;;;;;;;;5012573;28;20708;-59
2024/02/15 13:08:18;;;;;;;6.00;5.47;;;;;;;;;;5008419;28;20283;-59
2024/02/15 13:10:45;;;;;;;5.70;5.40;;;;;;;;;;4993316;28;20234;-59
2024/02/15 13:13:13;;;;;;;8.33;6.90;;;;;;;;;;4992397;28;20203;-59
2024/02/15 13:15:41;;;;;;;6.37;5.73;;;;;;;;;;4992812;28;20282;-59
2024/02/15 13:18:10;;;;;;;6.67;6.03;;;;;;;;;;4992797;28;20579;-59
2024/02/15 13:20:38;;;;;;;7.60;6.80;;;;;;;;;;4992598;28;20310;-58
2024/02/15 13:23:14;;;;;;;7.43;6.93;;;;;;;;;;4991963;28;20743;-58
2024/02/15 13:25:43;;;;;;;7.00;6.30;;;;;;;;;;4993301;28;20282;-59
2024/02/15 13:28:10;;;;;;;6.67;6.03;;;;;;;;;;4993022;28;20646;-59
2024/02/15 13:30:37;;;;;;;7.77;6.97;;;;;;;;;;4992757;28;20228;-58
2024/02/15 13:33:05;;;;;;;9.30;7.13;;;;;;;;;;4991485;28;20212;-58
2024/02/15 13:35:33;;;;;;;6.30;5.30;;;;;;;;;;4992374;28;20706;-58
2024/02/15 13:38:02;;;;;;;5.83;5.33;;;;;;;;;;4992396;28;20212;-58
2024/02/15 13:40:31;;;;;;;6.27;5.67;;;;;;;;;;4992311;28;20228;-58
2024/02/15 13:42:59;;;;;;;6.00;5.40;;;;;;;;;;5011028;28;20208;-58
2024/02/15 13:45:32;;;;;;;5.30;4.87;;;;;;;;;;5011977;28;20199;-59
2024/02/15 13:48:00;;;;;;;4.23;4.03;;;;;;;;;;5012115;28;20292;-59
2024/02/15 13:50:28;;;;;;;4.67;4.47;;;;;;;;;;5011878;28;20227;-59
2024/02/15 13:52:55;;;;;;;4.50;4.30;;;;;;;;;;5009008;28;20203;-59
2024/02/15 13:55:22;;;;;;;5.13;4.67;;;;;;;;;;5012108;28;20260;-59
2024/02/15 13:57:51;;;;;;;5.97;4.47;;;;;;;;;;5001815;28;20266;-59
2024/02/15 14:00:23;;;;;;;4.40;3.97;;;;;;;;;;4992207;28;20230;-59
2024/02/15 14:02:50;;;;;;;4.43;4.13;;;13.80;99.90;;;;;;4992185;28;20199;-59
2024/02/15 14:05:19;;;;;;;5.38;4.88;;;;;;;;;;4989918;28;20447;-59
2024/02/15 14:07:52;;;;;;;4.90;4.40;;;13.40;99.90;;;;;;4992870;28;20295;-62
2024/02/15 14:10:20;;;;;;;4.37;3.87;;;13.30;99.90;;;;;;4994217;28;20280;-60
2024/02/15 14:12:48;;;;;;;5.07;4.67;;;13.30;99.90;;;;;;4995503;28;20227;-60
2024/02/15 14:15:17;;;;;;;4.93;4.47;;;13.10;99.90;;;;;;4995091;28;20230;-61
2024/02/15 14:17:44;;;;;;;4.70;4.33;;;13.10;99.90;;;;;;4993671;28;20242;-58
2024/02/15 14:20:13;;;;;;;6.90;4.70;;;13.20;99.90;;;;;;4994496;28;20259;-58
2024/02/15 14:22:40;;;;;;;6.83;5.00;;;13.20;99.90;;;;;;4993542;28;20598;-58
2024/02/15 14:25:08;;;;;;;4.57;4.17;;;13.20;99.90;;;;;;4991922;28;20210;-58
2024/02/15 14:27:35;;;;;;;5.57;5.07;;;13.30;99.90;;;;;;4992556;28;20264;-59
2024/02/15 14:33:08;;;;;;;4.13;3.90;;;13.20;99.90;;;;;;5012035;28;20231;-59
2024/02/15 14:35:36;;;;;;;6.20;4.60;;;13.20;99.90;;;;;;5012781;28;20293;-59
2024/02/15 14:38:06;;;;;;;7.83;5.00;;;13.30;99.90;;;;;;5017430;28;20199;-59
2024/02/15 14:40:34;;;;;;;5.93;4.90;;;;;;;;;;5012675;28;20234;-59
2024/02/15 14:43:01;;;;;;;4.97;4.53;;;;;;;;;;5012011;28;20363;-58
2024/02/15 14:45:28;;;;;;;4.97;4.33;;;;;;;;;;5011912;28;20290;-59
2024/02/15 14:47:57;;;;;;;7.10;4.47;;;;;;;;;;4994546;28;20347;-59
2024/02/15 14:50:25;;;;;;;6.00;4.80;;;;;;;;;;4992496;28;20227;-59
2024/02/15 14:52:52;;;;;;;6.23;4.63;;;;;;;;;;4994291;28;20235;-59
2024/02/15 14:55:20;;;;;;;4.83;4.43;;;;;;;;;;4993161;28;20210;-59
2024/02/15 14:57:47;;;;;;;7.93;5.33;;;;;;;;;;4991891;28;20200;-59
2024/02/15 15:00:17;;;;;;;5.03;4.40;;;;;;;;;;4992974;28;20282;-59
2024/02/15 15:02:44;;;;;;;5.33;4.20;;;;;;;;;;4995436;28;20212;-59
2024/02/15 15:13:27;;;;;;;8.43;5.47;;;;;;;;;;4995468;28;20596;-59
2024/02/15 15:15:54;;;;;;;9.50;6.03;;;;;;;;;;4994975;28;20694;-59
2024/02/15 15:18:21;;;;;;;5.67;5.17;;;;;;;;;;4995427;28;20208;-59
2024/02/15 15:20:50;;;;;;;5.87;5.40;;;;;;;;;;5007128;28;20227;-59